sensor_id;sensor_type;location;lat;lon;timestamp;temperature;humidity
52799;DHT22;38667;42.872;74.622;2022-12-10T00:00:21;-9.60;66.30
52799;DHT22;38667;42.872;74.622;2022-12-10T00:02:48;-9.60;69.00
52799;DHT22;38667;42.872;74.622;2022-12-10T00:05:14;-9.70;69.00
52799;DHT22;38667;42.872;74.622;2022-12-10T00:07:40;-9.50;62.80
52799;DHT22;38667;42.872;74.622;2022-12-10T00:10:07;-9.40;63.50
52799;DHT22;38667;42.872;74.622;2022-12-10T00:12:35;-9.40;63.70
52799;DHT22;38667;42.872;74.622;2022-12-10T00:15:01;-9.40;66.20
52799;DHT22;38667;42.872;74.622;2022-12-10T00:17:27;-9.50;67.40
52799;DHT22;38667;42.872;74.622;2022-12-10T00:19:54;-9.50;67.50
52799;DHT22;38667;42.872;74.622;2022-12-10T00:22:20;-9.40;66.80
52799;DHT22;38667;42.872;74.622;2022-12-10T00:24:46;-9.40;64.00
52799;DHT22;38667;42.872;74.622;2022-12-10T00:27:13;-9.20;60.80
52799;DHT22;38667;42.872;74.622;2022-12-10T00:29:40;-9.10;60.10
52799;DHT22;38667;42.872;74.622;2022-12-10T00:32:07;-9.30;63.50
52799;DHT22;38667;42.872;74.622;2022-12-10T00:34:33;-9.40;64.70
52799;DHT22;38667;42.872;74.622;2022-12-10T00:36:59;-9.40;64.90
52799;DHT22;38667;42.872;74.622;2022-12-10T00:39:26;-9.50;65.90
52799;DHT22;38667;42.872;74.622;2022-12-10T00:41:52;-9.50;65.50
52799;DHT22;38667;42.872;74.622;2022-12-10T00:44:19;-9.60;66.10
52799;DHT22;38667;42.872;74.622;2022-12-10T00:46:46;-9.50;66.80
52799;DHT22;38667;42.872;74.622;2022-12-10T00:49:13;-9.60;67.20
52799;DHT22;38667;42.872;74.622;2022-12-10T00:51:39;-9.50;66.50
52799;DHT22;38667;42.872;74.622;2022-12-10T00:54:06;-9.30;64.30
52799;DHT22;38667;42.872;74.622;2022-12-10T00:56:33;-9.20;64.50
52799;DHT22;38667;42.872;74.622;2022-12-10T00:59:00;-9.30;66.50
52799;DHT22;38667;42.872;74.622;2022-12-10T01:01:27;-9.40;66.20
52799;DHT22;38667;42.872;74.622;2022-12-10T01:03:58;-9.40;65.90
52799;DHT22;38667;42.872;74.622;2022-12-10T01:06:25;-9.40;67.10
52799;DHT22;38667;42.872;74.622;2022-12-10T01:08:53;-9.40;67.50
52799;DHT22;38667;42.872;74.622;2022-12-10T01:11:23;-9.50;67.70
52799;DHT22;38667;42.872;74.622;2022-12-10T01:13:51;-9.40;67.60
52799;DHT22;38667;42.872;74.622;2022-12-10T01:16:20;-9.30;66.30
52799;DHT22;38667;42.872;74.622;2022-12-10T01:18:47;-9.20;64.30
52799;DHT22;38667;42.872;74.622;2022-12-10T01:21:17;-8.90;63.10
52799;DHT22;38667;42.872;74.622;2022-12-10T01:23:45;-8.90;63.40
52799;DHT22;38667;42.872;74.622;2022-12-10T01:26:14;-9.00;63.20
52799;DHT22;38667;42.872;74.622;2022-12-10T01:28:41;-9.10;64.40
52799;DHT22;38667;42.872;74.622;2022-12-10T01:31:09;-9.20;65.30
52799;DHT22;38667;42.872;74.622;2022-12-10T01:33:36;-9.20;67.50
52799;DHT22;38667;42.872;74.622;2022-12-10T01:36:04;-9.20;67.80
52799;DHT22;38667;42.872;74.622;2022-12-10T01:38:33;-9.20;67.50
52799;DHT22;38667;42.872;74.622;2022-12-10T01:41:00;-9.30;67.80
52799;DHT22;38667;42.872;74.622;2022-12-10T01:43:27;-9.30;68.50
52799;DHT22;38667;42.872;74.622;2022-12-10T01:45:53;-9.40;69.00
52799;DHT22;38667;42.872;74.622;2022-12-10T01:48:20;-9.40;69.00
52799;DHT22;38667;42.872;74.622;2022-12-10T01:50:46;-9.50;69.20
52799;DHT22;38667;42.872;74.622;2022-12-10T01:53:14;-9.40;69.30
52799;DHT22;38667;42.872;74.622;2022-12-10T01:55:46;-9.30;67.70
52799;DHT22;38667;42.872;74.622;2022-12-10T01:58:13;-9.30;67.20
52799;DHT22;38667;42.872;74.622;2022-12-10T02:00:46;-9.30;66.50
52799;DHT22;38667;42.872;74.622;2022-12-10T02:03:20;-9.30;66.10
52799;DHT22;38667;42.872;74.622;2022-12-10T02:05:56;-9.30;66.60
52799;DHT22;38667;42.872;74.622;2022-12-10T02:08:27;-9.40;65.60
52799;DHT22;38667;42.872;74.622;2022-12-10T02:11:06;-9.40;65.60
52799;DHT22;38667;42.872;74.622;2022-12-10T02:13:39;-9.40;65.90
52799;DHT22;38667;42.872;74.622;2022-12-10T02:16:14;-9.40;67.40
52799;DHT22;38667;42.872;74.622;2022-12-10T02:18:44;-9.50;68.80
52799;DHT22;38667;42.872;74.622;2022-12-10T02:21:16;-9.40;68.70
52799;DHT22;38667;42.872;74.622;2022-12-10T02:23:46;-9.40;67.90
52799;DHT22;38667;42.872;74.622;2022-12-10T02:26:20;-9.40;68.00
52799;DHT22;38667;42.872;74.622;2022-12-10T02:28:52;-9.50;68.20
52799;DHT22;38667;42.872;74.622;2022-12-10T02:31:25;-9.40;68.90
52799;DHT22;38667;42.872;74.622;2022-12-10T02:33:56;-9.40;68.20
52799;DHT22;38667;42.872;74.622;2022-12-10T02:36:24;-9.40;68.50
52799;DHT22;38667;42.872;74.622;2022-12-10T02:38:52;-9.40;69.30
52799;DHT22;38667;42.872;74.622;2022-12-10T02:41:22;-9.50;67.80
52799;DHT22;38667;42.872;74.622;2022-12-10T02:43:52;-9.50;68.30
52799;DHT22;38667;42.872;74.622;2022-12-10T02:46:20;-9.50;68.60
52799;DHT22;38667;42.872;74.622;2022-12-10T02:48:49;-9.60;68.60
52799;DHT22;38667;42.872;74.622;2022-12-10T02:51:16;-9.50;69.00
52799;DHT22;38667;42.872;74.622;2022-12-10T02:53:42;-9.50;67.80
52799;DHT22;38667;42.872;74.622;2022-12-10T02:56:14;-9.50;67.60
52799;DHT22;38667;42.872;74.622;2022-12-10T02:58:53;-9.50;67.50
52799;DHT22;38667;42.872;74.622;2022-12-10T03:01:29;-9.40;68.10
52799;DHT22;38667;42.872;74.622;2022-12-10T03:04:01;-9.30;66.60
52799;DHT22;38667;42.872;74.622;2022-12-10T03:06:34;-9.20;66.50
52799;DHT22;38667;42.872;74.622;2022-12-10T03:09:05;-9.10;66.90
52799;DHT22;38667;42.872;74.622;2022-12-10T03:11:33;-9.10;66.60
52799;DHT22;38667;42.872;74.622;2022-12-10T03:14:00;-9.00;67.50
52799;DHT22;38667;42.872;74.622;2022-12-10T03:16:31;-9.00;66.60
52799;DHT22;38667;42.872;74.622;2022-12-10T03:19:04;-8.90;65.10
52799;DHT22;38667;42.872;74.622;2022-12-10T03:21:32;-8.80;64.70
52799;DHT22;38667;42.872;74.622;2022-12-10T03:24:00;-8.70;65.50
52799;DHT22;38667;42.872;74.622;2022-12-10T03:26:27;-8.60;65.20
52799;DHT22;38667;42.872;74.622;2022-12-10T03:28:58;-8.50;63.50
52799;DHT22;38667;42.872;74.622;2022-12-10T03:31:28;-8.40;62.70
52799;DHT22;38667;42.872;74.622;2022-12-10T03:33:55;-8.40;62.40
52799;DHT22;38667;42.872;74.622;2022-12-10T03:36:23;-8.30;62.50
52799;DHT22;38667;42.872;74.622;2022-12-10T03:38:50;-8.20;61.90
52799;DHT22;38667;42.872;74.622;2022-12-10T03:41:17;-8.10;59.10
52799;DHT22;38667;42.872;74.622;2022-12-10T03:43:54;-8.00;58.60
52799;DHT22;38667;42.872;74.622;2022-12-10T03:46:20;-7.90;58.80
52799;DHT22;38667;42.872;74.622;2022-12-10T03:48:47;-7.80;59.20
52799;DHT22;38667;42.872;74.622;2022-12-10T03:51:13;-7.80;58.20
52799;DHT22;38667;42.872;74.622;2022-12-10T03:53:41;-7.70;57.70
52799;DHT22;38667;42.872;74.622;2022-12-10T03:56:08;-7.60;57.00
52799;DHT22;38667;42.872;74.622;2022-12-10T03:58:34;-7.50;56.70
52799;DHT22;38667;42.872;74.622;2022-12-10T04:01:01;-7.40;56.70
52799;DHT22;38667;42.872;74.622;2022-12-10T04:03:27;-7.40;55.30
52799;DHT22;38667;42.872;74.622;2022-12-10T04:05:53;-7.30;54.40
52799;DHT22;38667;42.872;74.622;2022-12-10T04:08:19;-7.20;54.70
52799;DHT22;38667;42.872;74.622;2022-12-10T04:10:47;-7.20;55.40
52799;DHT22;38667;42.872;74.622;2022-12-10T04:13:14;-7.20;55.40
52799;DHT22;38667;42.872;74.622;2022-12-10T04:15:40;-7.10;56.80
52799;DHT22;38667;42.872;74.622;2022-12-10T04:18:06;-7.00;55.70
52799;DHT22;38667;42.872;74.622;2022-12-10T04:20:32;-6.90;55.20
52799;DHT22;38667;42.872;74.622;2022-12-10T04:22:59;-6.90;54.20
52799;DHT22;38667;42.872;74.622;2022-12-10T04:25:25;-6.70;54.50
52799;DHT22;38667;42.872;74.622;2022-12-10T04:27:53;-6.50;53.90
52799;DHT22;38667;42.872;74.622;2022-12-10T04:30:19;-6.40;53.00
52799;DHT22;38667;42.872;74.622;2022-12-10T04:32:46;-6.30;53.40
52799;DHT22;38667;42.872;74.622;2022-12-10T04:35:12;-6.20;54.10
52799;DHT22;38667;42.872;74.622;2022-12-10T04:37:39;-6.10;54.50
52799;DHT22;38667;42.872;74.622;2022-12-10T04:40:06;-6.00;52.70
52799;DHT22;38667;42.872;74.622;2022-12-10T04:42:33;-6.00;54.20
52799;DHT22;38667;42.872;74.622;2022-12-10T04:45:01;-5.90;54.20
52799;DHT22;38667;42.872;74.622;2022-12-10T04:47:27;-5.90;52.80
52799;DHT22;38667;42.872;74.622;2022-12-10T04:49:53;-5.80;53.60
52799;DHT22;38667;42.872;74.622;2022-12-10T04:52:20;-5.80;53.90
52799;DHT22;38667;42.872;74.622;2022-12-10T04:54:46;-5.80;54.50
52799;DHT22;38667;42.872;74.622;2022-12-10T04:57:13;-5.80;53.00
52799;DHT22;38667;42.872;74.622;2022-12-10T04:59:39;-5.80;53.90
52799;DHT22;38667;42.872;74.622;2022-12-10T05:02:07;-5.70;53.80
52799;DHT22;38667;42.872;74.622;2022-12-10T05:04:33;-5.60;53.60
52799;DHT22;38667;42.872;74.622;2022-12-10T05:07:00;-5.50;54.10
52799;DHT22;38667;42.872;74.622;2022-12-10T05:09:26;-5.50;53.60
52799;DHT22;38667;42.872;74.622;2022-12-10T05:11:52;-5.40;51.60
52799;DHT22;38667;42.872;74.622;2022-12-10T05:14:19;-5.40;53.20
52799;DHT22;38667;42.872;74.622;2022-12-10T05:16:45;-5.30;52.00
52799;DHT22;38667;42.872;74.622;2022-12-10T05:19:16;-5.30;51.60
52799;DHT22;38667;42.872;74.622;2022-12-10T05:21:42;-5.30;51.60
52799;DHT22;38667;42.872;74.622;2022-12-10T05:24:09;-5.30;51.80
52799;DHT22;38667;42.872;74.622;2022-12-10T05:26:35;-5.20;51.40
52799;DHT22;38667;42.872;74.622;2022-12-10T05:29:01;-5.30;52.40
52799;DHT22;38667;42.872;74.622;2022-12-10T05:31:29;-5.20;53.40
52799;DHT22;38667;42.872;74.622;2022-12-10T05:33:58;-5.10;52.70
52799;DHT22;38667;42.872;74.622;2022-12-10T05:36:28;-5.10;52.80
52799;DHT22;38667;42.872;74.622;2022-12-10T05:38:55;-5.10;50.90
52799;DHT22;38667;42.872;74.622;2022-12-10T05:41:23;-5.00;51.80
52799;DHT22;38667;42.872;74.622;2022-12-10T05:43:50;-4.90;49.70
52799;DHT22;38667;42.872;74.622;2022-12-10T05:46:18;-4.80;49.40
52799;DHT22;38667;42.872;74.622;2022-12-10T05:48:45;-4.80;49.80
52799;DHT22;38667;42.872;74.622;2022-12-10T05:51:13;-4.80;49.70
52799;DHT22;38667;42.872;74.622;2022-12-10T05:53:41;-4.80;50.00
52799;DHT22;38667;42.872;74.622;2022-12-10T05:56:10;-4.90;50.40
52799;DHT22;38667;42.872;74.622;2022-12-10T05:58:37;-4.90;49.50
52799;DHT22;38667;42.872;74.622;2022-12-10T06:01:07;-4.90;50.60
52799;DHT22;38667;42.872;74.622;2022-12-10T06:03:33;-4.80;49.90
52799;DHT22;38667;42.872;74.622;2022-12-10T06:05:59;-4.80;51.10
52799;DHT22;38667;42.872;74.622;2022-12-10T06:08:26;-4.70;51.40
52799;DHT22;38667;42.872;74.622;2022-12-10T06:10:54;-4.70;52.30
52799;DHT22;38667;42.872;74.622;2022-12-10T06:13:20;-4.60;50.70
52799;DHT22;38667;42.872;74.622;2022-12-10T06:15:46;-4.60;51.40
52799;DHT22;38667;42.872;74.622;2022-12-10T06:18:13;-4.50;51.00
52799;DHT22;38667;42.872;74.622;2022-12-10T06:20:39;-4.50;51.00
52799;DHT22;38667;42.872;74.622;2022-12-10T06:23:06;-4.40;50.60
52799;DHT22;38667;42.872;74.622;2022-12-10T06:25:32;-4.30;52.10
52799;DHT22;38667;42.872;74.622;2022-12-10T06:28:00;-4.30;51.70
52799;DHT22;38667;42.872;74.622;2022-12-10T06:30:27;-4.20;50.50
52799;DHT22;38667;42.872;74.622;2022-12-10T06:32:53;-4.20;50.40
52799;DHT22;38667;42.872;74.622;2022-12-10T06:35:19;-4.20;48.80
52799;DHT22;38667;42.872;74.622;2022-12-10T06:37:45;-4.20;48.80
52799;DHT22;38667;42.872;74.622;2022-12-10T06:40:12;-4.20;49.30
52799;DHT22;38667;42.872;74.622;2022-12-10T06:42:38;-4.10;50.80
52799;DHT22;38667;42.872;74.622;2022-12-10T06:45:07;-4.10;50.80
52799;DHT22;38667;42.872;74.622;2022-12-10T06:47:34;-4.00;51.60
52799;DHT22;38667;42.872;74.622;2022-12-10T06:50:00;-4.00;53.90
52799;DHT22;38667;42.872;74.622;2022-12-10T06:52:27;-4.00;53.80
52799;DHT22;38667;42.872;74.622;2022-12-10T06:54:53;-3.90;55.00
52799;DHT22;38667;42.872;74.622;2022-12-10T06:57:19;-3.80;54.00
52799;DHT22;38667;42.872;74.622;2022-12-10T06:59:45;-3.80;53.70
52799;DHT22;38667;42.872;74.622;2022-12-10T07:02:13;-3.70;53.80
52799;DHT22;38667;42.872;74.622;2022-12-10T07:04:40;-3.70;53.20
52799;DHT22;38667;42.872;74.622;2022-12-10T07:07:06;-3.60;53.70
52799;DHT22;38667;42.872;74.622;2022-12-10T07:09:32;-3.60;52.10
52799;DHT22;38667;42.872;74.622;2022-12-10T07:11:59;-3.60;52.40
52799;DHT22;38667;42.872;74.622;2022-12-10T07:14:25;-3.60;51.90
52799;DHT22;38667;42.872;74.622;2022-12-10T07:16:52;-3.60;52.40
52799;DHT22;38667;42.872;74.622;2022-12-10T07:19:20;-3.50;52.70
52799;DHT22;38667;42.872;74.622;2022-12-10T07:21:46;-3.50;51.40
52799;DHT22;38667;42.872;74.622;2022-12-10T07:24:13;-3.40;50.40
52799;DHT22;38667;42.872;74.622;2022-12-10T07:26:42;-3.40;50.30
52799;DHT22;38667;42.872;74.622;2022-12-10T07:29:12;-3.40;49.50
52799;DHT22;38667;42.872;74.622;2022-12-10T07:31:39;-3.40;47.60
52799;DHT22;38667;42.872;74.622;2022-12-10T07:34:05;-3.40;46.70
52799;DHT22;38667;42.872;74.622;2022-12-10T07:36:33;-3.40;46.30
52799;DHT22;38667;42.872;74.622;2022-12-10T07:38:59;-3.40;44.50
52799;DHT22;38667;42.872;74.622;2022-12-10T07:41:25;-3.40;45.00
52799;DHT22;38667;42.872;74.622;2022-12-10T07:43:52;-3.40;45.50
52799;DHT22;38667;42.872;74.622;2022-12-10T07:46:20;-3.40;45.30
52799;DHT22;38667;42.872;74.622;2022-12-10T07:48:48;-3.40;44.40
52799;DHT22;38667;42.872;74.622;2022-12-10T07:51:16;-3.40;45.40
52799;DHT22;38667;42.872;74.622;2022-12-10T07:53:44;-3.30;42.70
52799;DHT22;38667;42.872;74.622;2022-12-10T07:56:11;-3.30;43.40
52799;DHT22;38667;42.872;74.622;2022-12-10T07:58:40;-3.30;43.10
52799;DHT22;38667;42.872;74.622;2022-12-10T08:01:07;-3.20;43.60
52799;DHT22;38667;42.872;74.622;2022-12-10T08:03:34;-3.20;41.60
52799;DHT22;38667;42.872;74.622;2022-12-10T08:06:01;-3.20;42.60
52799;DHT22;38667;42.872;74.622;2022-12-10T08:08:28;-3.20;41.80
52799;DHT22;38667;42.872;74.622;2022-12-10T08:10:59;-3.20;41.80
52799;DHT22;38667;42.872;74.622;2022-12-10T08:13:25;-3.20;42.90
52799;DHT22;38667;42.872;74.622;2022-12-10T08:15:51;-3.20;43.20
52799;DHT22;38667;42.872;74.622;2022-12-10T08:18:17;-3.10;45.20
52799;DHT22;38667;42.872;74.622;2022-12-10T08:20:44;-3.10;42.00
52799;DHT22;38667;42.872;74.622;2022-12-10T08:23:10;-3.10;43.00
52799;DHT22;38667;42.872;74.622;2022-12-10T08:25:36;-3.10;43.20
52799;DHT22;38667;42.872;74.622;2022-12-10T08:28:05;-3.10;43.30
52799;DHT22;38667;42.872;74.622;2022-12-10T08:30:31;-3.10;42.90
52799;DHT22;38667;42.872;74.622;2022-12-10T08:32:57;-3.10;43.30
52799;DHT22;38667;42.872;74.622;2022-12-10T08:35:23;-3.10;42.50
52799;DHT22;38667;42.872;74.622;2022-12-10T08:37:50;-3.00;42.30
52799;DHT22;38667;42.872;74.622;2022-12-10T08:40:16;-3.00;40.90
52799;DHT22;38667;42.872;74.622;2022-12-10T08:42:42;-2.90;41.10
52799;DHT22;38667;42.872;74.622;2022-12-10T08:45:10;-2.90;40.70
52799;DHT22;38667;42.872;74.622;2022-12-10T08:47:37;-2.80;39.90
52799;DHT22;38667;42.872;74.622;2022-12-10T08:50:04;-2.80;40.90
52799;DHT22;38667;42.872;74.622;2022-12-10T08:52:30;-2.80;42.90
52799;DHT22;38667;42.872;74.622;2022-12-10T08:54:57;-2.80;40.70
52799;DHT22;38667;42.872;74.622;2022-12-10T08:57:23;-2.80;38.90
52799;DHT22;38667;42.872;74.622;2022-12-10T08:59:49;-2.80;40.90
52799;DHT22;38667;42.872;74.622;2022-12-10T09:02:17;-2.80;39.60
52799;DHT22;38667;42.872;74.622;2022-12-10T09:04:44;-2.70;38.60
52799;DHT22;38667;42.872;74.622;2022-12-10T09:07:10;-2.70;39.00
52799;DHT22;38667;42.872;74.622;2022-12-10T09:09:36;-2.70;39.80
52799;DHT22;38667;42.872;74.622;2022-12-10T09:12:03;-2.60;38.90
52799;DHT22;38667;42.872;74.622;2022-12-10T09:14:29;-2.60;38.20
52799;DHT22;38667;42.872;74.622;2022-12-10T09:16:56;-2.60;41.10
52799;DHT22;38667;42.872;74.622;2022-12-10T09:19:24;-2.50;41.30
52799;DHT22;38667;42.872;74.622;2022-12-10T09:21:50;-2.50;41.00
52799;DHT22;38667;42.872;74.622;2022-12-10T09:24:16;-2.50;40.70
52799;DHT22;38667;42.872;74.622;2022-12-10T09:26:43;-2.40;41.40
52799;DHT22;38667;42.872;74.622;2022-12-10T09:29:09;-2.30;40.00
52799;DHT22;38667;42.872;74.622;2022-12-10T09:31:35;-2.30;38.80
52799;DHT22;38667;42.872;74.622;2022-12-10T09:34:02;-2.20;39.50
52799;DHT22;38667;42.872;74.622;2022-12-10T09:36:30;-2.20;39.50
52799;DHT22;38667;42.872;74.622;2022-12-10T09:38:56;-2.20;41.90
52799;DHT22;38667;42.872;74.622;2022-12-10T09:41:47;-2.30;41.10
52799;DHT22;38667;42.872;74.622;2022-12-10T09:44:28;-2.30;42.20
52799;DHT22;38667;42.872;74.622;2022-12-10T09:46:58;-2.30;40.90
52799;DHT22;38667;42.872;74.622;2022-12-10T09:49:33;-2.40;40.00
52799;DHT22;38667;42.872;74.622;2022-12-10T09:52:10;-2.40;40.70
52799;DHT22;38667;42.872;74.622;2022-12-10T09:54:40;-2.30;41.70
52799;DHT22;38667;42.872;74.622;2022-12-10T09:57:18;-2.20;41.40
52799;DHT22;38667;42.872;74.622;2022-12-10T09:59:49;-2.20;41.60
52799;DHT22;38667;42.872;74.622;2022-12-10T10:02:21;-2.20;42.80
52799;DHT22;38667;42.872;74.622;2022-12-10T10:04:48;-2.40;44.50
52799;DHT22;38667;42.872;74.622;2022-12-10T10:07:20;-2.50;44.30
52799;DHT22;38667;42.872;74.622;2022-12-10T10:09:47;-2.60;44.50
52799;DHT22;38667;42.872;74.622;2022-12-10T10:12:14;-2.50;44.70
52799;DHT22;38667;42.872;74.622;2022-12-10T10:14:43;-2.50;44.60
52799;DHT22;38667;42.872;74.622;2022-12-10T10:17:12;-2.60;45.80
52799;DHT22;38667;42.872;74.622;2022-12-10T10:19:42;-2.60;46.20
52799;DHT22;38667;42.872;74.622;2022-12-10T10:22:10;-2.70;46.50
52799;DHT22;38667;42.872;74.622;2022-12-10T10:24:40;-2.70;46.20
52799;DHT22;38667;42.872;74.622;2022-12-10T10:27:13;-2.70;47.20
52799;DHT22;38667;42.872;74.622;2022-12-10T10:29:40;-2.70;46.20
52799;DHT22;38667;42.872;74.622;2022-12-10T10:32:15;-2.70;46.50
52799;DHT22;38667;42.872;74.622;2022-12-10T10:34:44;-2.80;47.20
52799;DHT22;38667;42.872;74.622;2022-12-10T10:37:18;-2.80;47.20
52799;DHT22;38667;42.872;74.622;2022-12-10T10:39:50;-2.80;47.80
52799;DHT22;38667;42.872;74.622;2022-12-10T10:42:27;-2.90;47.60
52799;DHT22;38667;42.872;74.622;2022-12-10T10:44:54;-3.00;47.30
52799;DHT22;38667;42.872;74.622;2022-12-10T10:47:28;-3.20;48.00
52799;DHT22;38667;42.872;74.622;2022-12-10T10:49:55;-3.20;48.90
52799;DHT22;38667;42.872;74.622;2022-12-10T10:52:22;-3.20;50.00
52799;DHT22;38667;42.872;74.622;2022-12-10T10:54:50;-3.30;49.60
52799;DHT22;38667;42.872;74.622;2022-12-10T10:57:29;-3.30;50.40
52799;DHT22;38667;42.872;74.622;2022-12-10T11:00:04;-3.30;49.60
52799;DHT22;38667;42.872;74.622;2022-12-10T11:02:35;-3.20;49.00
52799;DHT22;38667;42.872;74.622;2022-12-10T11:05:06;-3.20;48.40
52799;DHT22;38667;42.872;74.622;2022-12-10T11:07:35;-3.30;48.40
52799;DHT22;38667;42.872;74.622;2022-12-10T11:10:16;-3.40;48.90
52799;DHT22;38667;42.872;74.622;2022-12-10T11:12:44;-3.40;49.50
52799;DHT22;38667;42.872;74.622;2022-12-10T11:15:33;-3.50;49.40
52799;DHT22;38667;42.872;74.622;2022-12-10T11:18:00;-3.60;49.90
52799;DHT22;38667;42.872;74.622;2022-12-10T11:20:28;-3.60;50.80
52799;DHT22;38667;42.872;74.622;2022-12-10T11:22:57;-3.70;49.50
52799;DHT22;38667;42.872;74.622;2022-12-10T11:25:37;-3.70;49.80
52799;DHT22;38667;42.872;74.622;2022-12-10T11:28:12;-3.80;50.60
52799;DHT22;38667;42.872;74.622;2022-12-10T11:30:48;-3.80;50.10
52799;DHT22;38667;42.872;74.622;2022-12-10T11:33:24;-3.90;51.70
52799;DHT22;38667;42.872;74.622;2022-12-10T11:35:59;-4.00;52.10
52799;DHT22;38667;42.872;74.622;2022-12-10T11:38:35;-4.00;52.40
52799;DHT22;38667;42.872;74.622;2022-12-10T11:41:18;-4.00;52.60
52799;DHT22;38667;42.872;74.622;2022-12-10T11:44:06;-4.10;53.20
52799;DHT22;38667;42.872;74.622;2022-12-10T11:46:46;-4.10;52.80
52799;DHT22;38667;42.872;74.622;2022-12-10T11:49:25;-4.20;52.80
52799;DHT22;38667;42.872;74.622;2022-12-10T11:52:00;-4.20;53.80
52799;DHT22;38667;42.872;74.622;2022-12-10T11:54:51;-4.30;54.00
52799;DHT22;38667;42.872;74.622;2022-12-10T11:57:29;-4.30;54.30
52799;DHT22;38667;42.872;74.622;2022-12-10T12:00:01;-4.40;54.50
52799;DHT22;38667;42.872;74.622;2022-12-10T12:05:52;-4.50;54.60
52799;DHT22;38667;42.872;74.622;2022-12-10T12:08:26;-4.60;54.70
52799;DHT22;38667;42.872;74.622;2022-12-10T12:11:15;-4.60;55.30
52799;DHT22;38667;42.872;74.622;2022-12-10T12:13:50;-4.60;55.70
52799;DHT22;38667;42.872;74.622;2022-12-10T12:16:22;-4.60;55.00
52799;DHT22;38667;42.872;74.622;2022-12-10T12:18:54;-4.70;55.80
52799;DHT22;38667;42.872;74.622;2022-12-10T12:21:21;-4.80;55.70
52799;DHT22;38667;42.872;74.622;2022-12-10T12:23:51;-4.80;56.10
52799;DHT22;38667;42.872;74.622;2022-12-10T12:26:24;-4.80;56.20
52799;DHT22;38667;42.872;74.622;2022-12-10T12:28:56;-4.80;56.30
52799;DHT22;38667;42.872;74.622;2022-12-10T12:31:30;-4.80;57.40
52799;DHT22;38667;42.872;74.622;2022-12-10T12:34:01;-4.80;57.00
52799;DHT22;38667;42.872;74.622;2022-12-10T12:36:32;-4.90;58.10
52799;DHT22;38667;42.872;74.622;2022-12-10T12:39:03;-4.90;58.40
52799;DHT22;38667;42.872;74.622;2022-12-10T12:41:37;-5.00;58.30
52799;DHT22;38667;42.872;74.622;2022-12-10T12:44:14;-5.10;58.50
52799;DHT22;38667;42.872;74.622;2022-12-10T12:46:44;-5.10;59.00
52799;DHT22;38667;42.872;74.622;2022-12-10T12:49:18;-5.10;59.40
52799;DHT22;38667;42.872;74.622;2022-12-10T12:51:49;-5.20;59.10
52799;DHT22;38667;42.872;74.622;2022-12-10T12:54:17;-5.20;59.30
52799;DHT22;38667;42.872;74.622;2022-12-10T12:57:05;-5.30;59.40
52799;DHT22;38667;42.872;74.622;2022-12-10T12:59:52;-5.30;59.40
52799;DHT22;38667;42.872;74.622;2022-12-10T13:02:38;-5.30;60.00
52799;DHT22;38667;42.872;74.622;2022-12-10T13:05:13;-5.30;60.00
52799;DHT22;38667;42.872;74.622;2022-12-10T13:07:41;-5.30;60.60
52799;DHT22;38667;42.872;74.622;2022-12-10T13:10:24;-5.40;61.10
52799;DHT22;38667;42.872;74.622;2022-12-10T13:13:05;-5.40;61.60
52799;DHT22;38667;42.872;74.622;2022-12-10T13:15:37;-5.50;62.20
52799;DHT22;38667;42.872;74.622;2022-12-10T13:18:19;-5.50;62.70
52799;DHT22;38667;42.872;74.622;2022-12-10T13:20:47;-5.70;62.70
52799;DHT22;38667;42.872;74.622;2022-12-10T13:23:29;-5.80;63.90
52799;DHT22;38667;42.872;74.622;2022-12-10T13:25:58;-5.90;63.90
52799;DHT22;38667;42.872;74.622;2022-12-10T13:28:32;-5.90;64.20
52799;DHT22;38667;42.872;74.622;2022-12-10T13:31:18;-5.90;64.50
52799;DHT22;38667;42.872;74.622;2022-12-10T13:33:48;-6.00;64.20
52799;DHT22;38667;42.872;74.622;2022-12-10T13:36:21;-6.00;64.70
52799;DHT22;38667;42.872;74.622;2022-12-10T13:38:56;-6.10;65.10
52799;DHT22;38667;42.872;74.622;2022-12-10T13:41:23;-6.00;65.30
52799;DHT22;38667;42.872;74.622;2022-12-10T13:43:56;-6.00;65.30
52799;DHT22;38667;42.872;74.622;2022-12-10T13:46:28;-6.10;64.70
52799;DHT22;38667;42.872;74.622;2022-12-10T13:48:57;-6.20;64.40
52799;DHT22;38667;42.872;74.622;2022-12-10T13:51:43;-6.30;64.70
52799;DHT22;38667;42.872;74.622;2022-12-10T13:54:29;-6.30;65.30
52799;DHT22;38667;42.872;74.622;2022-12-10T13:57:09;-6.30;65.50
52799;DHT22;38667;42.872;74.622;2022-12-10T13:59:43;-6.30;65.30
52799;DHT22;38667;42.872;74.622;2022-12-10T14:02:29;-6.40;65.50
52799;DHT22;38667;42.872;74.622;2022-12-10T14:05:27;-6.40;65.80
52799;DHT22;38667;42.872;74.622;2022-12-10T14:08:01;-6.40;66.20
52799;DHT22;38667;42.872;74.622;2022-12-10T14:10:32;-6.30;66.00
52799;DHT22;38667;42.872;74.622;2022-12-10T14:12:59;-6.30;65.60
52799;DHT22;38667;42.872;74.622;2022-12-10T14:15:28;-6.30;65.20
52799;DHT22;38667;42.872;74.622;2022-12-10T14:18:00;-6.40;64.70
52799;DHT22;38667;42.872;74.622;2022-12-10T14:20:30;-6.30;64.30
52799;DHT22;38667;42.872;74.622;2022-12-10T14:22:57;-6.30;63.80
52799;DHT22;38667;42.872;74.622;2022-12-10T14:25:28;-6.30;63.80
52799;DHT22;38667;42.872;74.622;2022-12-10T14:27:54;-6.30;63.70
52799;DHT22;38667;42.872;74.622;2022-12-10T14:30:22;-6.40;63.50
52799;DHT22;38667;42.872;74.622;2022-12-10T14:32:50;-6.40;64.00
52799;DHT22;38667;42.872;74.622;2022-12-10T14:35:21;-6.40;63.60
52799;DHT22;38667;42.872;74.622;2022-12-10T14:37:49;-6.50;63.60
52799;DHT22;38667;42.872;74.622;2022-12-10T14:40:21;-6.50;63.90
52799;DHT22;38667;42.872;74.622;2022-12-10T14:42:49;-6.50;63.60
52799;DHT22;38667;42.872;74.622;2022-12-10T14:45:17;-6.50;63.90
52799;DHT22;38667;42.872;74.622;2022-12-10T14:47:43;-6.50;63.50
52799;DHT22;38667;42.872;74.622;2022-12-10T14:50:13;-6.50;63.60
52799;DHT22;38667;42.872;74.622;2022-12-10T14:52:44;-6.50;63.60
52799;DHT22;38667;42.872;74.622;2022-12-10T14:55:15;-6.50;63.70
52799;DHT22;38667;42.872;74.622;2022-12-10T14:57:46;-6.40;63.70
52799;DHT22;38667;42.872;74.622;2022-12-10T15:00:16;-6.40;64.00
52799;DHT22;38667;42.872;74.622;2022-12-10T15:02:44;-6.40;64.20
52799;DHT22;38667;42.872;74.622;2022-12-10T15:05:13;-6.40;64.30
52799;DHT22;38667;42.872;74.622;2022-12-10T15:07:52;-6.50;64.90
52799;DHT22;38667;42.872;74.622;2022-12-10T15:10:23;-6.70;65.80
52799;DHT22;38667;42.872;74.622;2022-12-10T15:12:51;-6.80;66.40
52799;DHT22;38667;42.872;74.622;2022-12-10T15:15:23;-6.90;66.90
52799;DHT22;38667;42.872;74.622;2022-12-10T15:17:55;-7.00;68.00
52799;DHT22;38667;42.872;74.622;2022-12-10T15:20:25;-7.10;68.00
52799;DHT22;38667;42.872;74.622;2022-12-10T15:22:54;-7.20;68.20
52799;DHT22;38667;42.872;74.622;2022-12-10T15:25:24;-7.30;68.60
52799;DHT22;38667;42.872;74.622;2022-12-10T15:27:58;-7.30;68.50
52799;DHT22;38667;42.872;74.622;2022-12-10T15:30:34;-7.30;68.40
52799;DHT22;38667;42.872;74.622;2022-12-10T15:33:01;-7.40;68.80